Time;durP1;ratioP1;P1;durP2;ratioP2;P2;SDS_P1;SDS_P2;PMS_P1;PMS_P2;Temp;Humidity;BMP_temperature;BMP_pressure;BME280_temperature;BME280_humidity;BME280_pressure;Samples;Min_cycle;Max_cycle;Signal;HPM_P1;HPM_P2
2023/08/03 00:01:57;;;;;;;5.82;2.38;;;15.50;99.90;;;;;;6187021;23;20017;-80
2023/08/03 00:04:23;;;;;;;6.95;2.50;;;15.70;99.90;;;;;;6160237;23;20017;-80
2023/08/03 00:06:49;;;;;;;5.68;2.40;;;15.50;99.90;;;;;;6160358;23;20025;-80
2023/08/03 00:09:14;;;;;;;7.40;2.67;;;15.50;99.90;;;;;;6160301;23;20350;-80
2023/08/03 00:11:40;;;;;;;10.38;2.63;;;15.60;99.90;;;;;;6160333;23;20028;-80
2023/08/03 00:14:06;;;;;;;7.10;2.13;;;15.70;99.90;;;;;;6160217;23;20023;-80
2023/08/03 00:16:31;;;;;;;6.13;2.55;;;15.60;99.90;;;;;;6186535;23;20021;-80
2023/08/03 00:18:57;;;;;;;9.52;3.05;;;15.60;99.90;;;;;;6186555;23;20025;-80
2023/08/03 00:21:22;;;;;;;6.75;2.30;;;15.60;99.90;;;;;;6160279;23;20008;-79
2023/08/03 00:23:48;;;;;;;7.25;2.55;;;15.60;99.90;;;;;;6159999;23;20048;-79
2023/08/03 00:26:14;;;;;;;5.40;2.47;;;15.70;99.90;;;;;;6160098;23;20442;-79
2023/08/03 00:28:39;;;;;;;4.60;1.98;;;15.60;99.90;;;;;;6160150;23;20009;-80
2023/08/03 00:34:46;;;;;;;6.55;2.53;;;15.70;99.90;;;;;;6185663;23;20357;-79
2023/08/03 00:37:12;;;;;;;9.25;2.67;;;15.70;99.90;;;;;;6186976;23;20031;-80
2023/08/03 00:39:38;;;;;;;5.88;2.35;;;15.50;99.90;;;;;;6159906;23;20017;-80
2023/08/03 00:42:05;;;;;;;7.38;2.15;;;15.70;99.90;;;;;;6159674;23;20103;-80
2023/08/03 00:44:31;;;;;;;6.53;2.40;;;15.70;99.90;;;;;;6160151;23;20025;-80
2023/08/03 00:46:57;;;;;;;6.75;2.50;;;15.50;99.90;;;;;;6159774;23;20079;-80
2023/08/03 00:49:27;;;;;;;6.40;2.20;;;15.50;99.90;;;;;;6159758;23;20021;-80
2023/08/03 00:51:59;;;;;;;6.13;2.55;;;15.60;99.90;;;;;;6186081;23;20457;-79
2023/08/03 00:54:25;;;;;;;6.18;1.98;;;15.50;99.90;;;;;;6186017;23;20472;-79
2023/08/03 00:56:51;;;;;;;7.32;2.20;;;15.50;99.90;;;;;;6159660;23;20017;-79
2023/08/03 00:59:17;;;;;;;8.82;2.30;;;15.70;99.90;;;;;;6160617;23;20056;-79
2023/08/03 01:01:43;;;;;;;8.40;2.65;;;15.60;99.90;;;;;;6159748;23;20032;-79
2023/08/03 01:04:10;;;;;;;7.68;2.40;;;15.60;99.90;;;;;;6159637;23;20024;-79
2023/08/03 01:06:35;;;;;;;9.68;3.10;;;15.50;99.90;;;;;;6159326;23;20048;-79
2023/08/03 01:09:02;;;;;;;9.27;2.58;;;15.50;99.90;;;;;;6186374;23;20016;-79
2023/08/03 01:11:29;;;;;;;8.65;2.42;;;15.70;99.90;;;;;;6159661;23;20049;-80
2023/08/03 01:13:56;;;;;;;7.28;2.15;;;15.60;99.90;;;;;;6159522;23;20368;-79
2023/08/03 01:16:23;;;;;;;6.70;2.70;;;15.50;99.90;;;;;;6159726;23;20021;-79
2023/08/03 01:18:49;;;;;;;6.70;2.30;;;15.60;99.90;;;;;;6160014;23;20081;-80
2023/08/03 01:21:18;;;;;;;6.95;2.22;;;15.60;99.90;;;;;;6159616;23;20093;-79
2023/08/03 01:23:44;;;;;;;6.80;2.13;;;15.60;99.90;;;;;;6159500;23;20091;-79
2023/08/03 01:26:09;;;;;;;6.05;2.50;;;15.50;99.90;;;;;;6159487;23;20449;-79
2023/08/03 01:28:35;;;;;;;4.68;2.13;;;15.70;99.90;;;;;;6159603;23;20024;-79
2023/08/03 01:31:01;;;;;;;5.90;2.38;;;15.70;99.90;;;;;;6159525;23;20017;-79
2023/08/03 01:33:27;;;;;;;7.15;2.35;;;15.60;99.90;;;;;;6159353;23;20017;-79
2023/08/03 01:35:53;;;;;;;6.43;2.35;;;15.70;99.90;;;;;;6159458;23;20331;-79
2023/08/03 01:38:19;;;;;;;5.72;2.72;;;15.60;99.90;;;;;;6159427;23;20404;-79
2023/08/03 01:40:44;;;;;;;6.78;2.70;;;15.50;99.90;;;;;;6185899;23;20096;-79
2023/08/03 01:43:10;;;;;;;4.28;2.10;;;15.60;99.90;;;;;;6159559;23;20009;-79
2023/08/03 01:45:36;;;;;;;7.10;2.38;;;15.70;99.90;;;;;;6159387;23;20020;-79
2023/08/03 01:48:02;;;;;;;6.38;2.10;;;15.60;99.90;;;;;;6159495;23;20491;-79
2023/08/03 01:50:28;;;;;;;9.13;2.55;;;15.60;99.90;;;;;;6159470;23;20099;-79
2023/08/03 01:52:54;;;;;;;5.90;2.83;;;15.70;99.90;;;;;;6159501;23;20046;-80
2023/08/03 01:55:19;;;;;;;7.20;2.80;;;15.70;99.90;;;;;;6159364;23;20341;-80
2023/08/03 01:57:45;;;;;;;4.28;2.40;;;15.50;99.90;;;;;;6159456;23;20025;-80
2023/08/03 02:00:11;;;;;;;7.32;2.58;;;15.70;99.90;;;;;;6159588;23;20013;-80
2023/08/03 02:02:37;;;;;;;6.10;3.10;;;15.70;99.90;;;;;;6159400;23;20099;-80
2023/08/03 02:05:03;;;;;;;5.45;2.53;;;15.60;99.90;;;;;;6159335;23;20353;-80
2023/08/03 02:07:55;;;;;;;6.13;2.45;;;15.70;99.90;;;;;;6159381;23;20013;-80
2023/08/03 02:10:23;;;;;;;5.72;2.65;;;15.70;99.90;;;;;;6186113;23;20017;-79
2023/08/03 02:12:49;;;;;;;7.90;3.15;;;15.70;99.90;;;;;;6186074;23;20009;-79
2023/08/03 02:15:15;;;;;;;4.93;2.38;;;15.70;99.90;;;;;;6159328;23;20031;-79
2023/08/03 02:17:42;;;;;;;7.88;2.55;;;15.80;99.90;;;;;;6159581;23;20508;-79
2023/08/03 02:20:13;;;;;;;5.53;2.72;;;15.60;99.90;;;;;;6161260;23;20024;-79
2023/08/03 02:22:39;;;;;;;5.32;2.40;;;15.60;99.90;;;;;;6187582;23;20027;-79
2023/08/03 02:25:05;;;;;;;6.22;2.78;;;15.70;99.90;;;;;;6161122;23;20017;-80
2023/08/03 02:27:31;;;;;;;8.45;2.80;;;15.60;99.90;;;;;;6161075;23;20024;-80
2023/08/03 02:29:57;;;;;;;6.28;2.58;;;15.60;99.90;;;;;;6161189;23;20021;-80
2023/08/03 02:32:24;;;;;;;9.50;2.85;;;15.60;99.90;;;;;;6161231;23;20044;-79
2023/08/03 02:34:51;;;;;;;4.45;2.47;;;15.60;99.90;;;;;;6160893;23;20025;-79
2023/08/03 02:37:17;;;;;;;6.82;2.97;;;15.60;99.90;;;;;;6187449;23;20033;-79
2023/08/03 02:39:43;;;;;;;6.10;2.58;;;15.70;99.90;;;;;;6160984;23;20013;-79
2023/08/03 02:42:11;;;;;;;6.38;2.30;;;15.80;99.90;;;;;;6161111;23;20080;-79
2023/08/03 02:44:37;;;;;;;5.03;2.30;;;15.60;99.90;;;;;;6187339;23;20021;-79
2023/08/03 02:47:02;;;;;;;9.50;2.90;;;15.70;99.90;;;;;;6160920;23;20032;-79
2023/08/03 02:49:28;;;;;;;6.72;2.80;;;15.80;99.90;;;;;;6160862;23;20017;-79
2023/08/03 02:51:54;;;;;;;5.00;2.83;;;15.70;99.90;;;;;;6188053;23;20025;-80
2023/08/03 02:54:19;;;;;;;8.00;2.85;;;15.70;99.90;;;;;;6160989;23;20067;-80
2023/08/03 02:56:45;;;;;;;4.90;2.65;;;15.80;99.90;;;;;;6161026;23;20017;-80
2023/08/03 02:59:10;;;;;;;6.38;2.88;;;15.70;99.90;;;;;;6160999;23;20013;-80
2023/08/03 03:01:36;;;;;;;3.83;2.60;;;15.80;99.90;;;;;;6160819;23;20024;-80
2023/08/03 03:04:02;;;;;;;5.63;2.70;;;15.80;99.90;;;;;;6187484;23;20017;-80
2023/08/03 03:06:28;;;;;;;6.15;2.90;;;15.80;99.90;;;;;;6187498;23;20084;-80
2023/08/03 03:08:53;;;;;;;6.75;2.80;;;15.80;99.90;;;;;;6187265;23;20382;-79
2023/08/03 03:11:19;;;;;;;5.97;3.22;;;15.90;99.90;;;;;;6187586;23;20021;-80
2023/08/03 03:13:44;;;;;;;6.57;3.38;;;15.70;99.90;;;;;;6160706;23;20017;-80
2023/08/03 03:16:10;;;;;;;6.00;2.90;;;15.70;99.90;;;;;;6160716;23;20039;-80
2023/08/03 03:18:36;;;;;;;6.78;3.03;;;15.70;99.90;;;;;;6160684;23;20052;-80
2023/08/03 03:21:01;;;;;;;7.22;3.08;;;15.80;99.90;;;;;;6160760;23;20025;-80
2023/08/03 03:23:27;;;;;;;7.88;2.90;;;15.80;99.90;;;;;;6187326;23;20040;-80
2023/08/03 03:25:53;;;;;;;7.70;2.85;;;15.70;99.90;;;;;;6160458;23;20013;-80
2023/08/03 03:28:18;;;;;;;4.97;3.25;;;15.70;99.90;;;;;;6160686;23;20055;-80
2023/08/03 03:30:44;;;;;;;7.72;3.85;;;15.70;99.90;;;;;;6160243;23;20017;-80
2023/08/03 03:33:11;;;;;;;6.45;3.95;;;15.70;99.90;;;;;;6155368;23;20044;-80
2023/08/03 03:35:37;;;;;;;5.78;3.95;;;15.90;99.90;;;;;;6155998;23;20024;-80
2023/08/03 03:38:02;;;;;;;5.72;4.00;;;15.90;99.90;;;;;;6155523;23;20017;-80
2023/08/03 03:40:28;;;;;;;8.40;3.83;;;15.70;99.90;;;;;;6155587;23;20028;-80
2023/08/03 03:42:54;;;;;;;9.73;4.25;;;15.90;99.90;;;;;;6155502;23;20098;-80
2023/08/03 03:45:19;;;;;;;7.30;3.92;;;15.70;99.90;;;;;;6155320;23;20017;-80
2023/08/03 03:47:45;;;;;;;6.63;3.60;;;15.80;99.90;;;;;;6155525;23;20021;-80
2023/08/03 03:50:10;;;;;;;5.95;3.83;;;15.80;99.90;;;;;;6155424;23;20338;-81
2023/08/03 03:52:36;;;;;;;7.43;3.70;;;15.90;99.90;;;;;;6157240;23;20014;-81
2023/08/03 03:55:08;;;;;;;5.47;3.60;;;15.70;99.90;;;;;;6155393;23;20029;-81
2023/08/03 03:57:33;;;;;;;5.95;3.60;;;15.70;99.90;;;;;;6155155;23;20020;-81
2023/08/03 03:59:59;;;;;;;4.72;2.42;;;15.70;99.90;;;;;;6154575;23;20028;-81
2023/08/03 04:02:24;;;;;;;4.60;2.40;;;15.80;99.90;;;;;;6155292;23;20014;-80
2023/08/03 04:04:50;;;;;;;3.63;1.45;;;15.80;99.90;;;;;;6155063;23;20021;-81
2023/08/03 04:07:16;;;;;;;6.32;1.50;;;15.80;99.90;;;;;;6155223;23;20382;-81
2023/08/03 04:09:41;;;;;;;4.53;1.23;;;15.90;99.90;;;;;;6155272;23;20021;-81
2023/08/03 04:12:16;;;;;;;1.92;0.90;;;15.80;99.90;;;;;;6155063;23;20097;-81
2023/08/03 04:14:42;;;;;;;3.58;1.00;;;15.70;99.90;;;;;;6154876;23;20025;-81
2023/08/03 04:17:07;;;;;;;3.47;1.10;;;15.90;99.90;;;;;;6156677;23;20060;-81
2023/08/03 04:19:33;;;;;;;3.28;0.60;;;15.90;99.90;;;;;;6156574;23;20461;-81
2023/08/03 04:21:58;;;;;;;1.65;0.40;;;15.90;99.90;;;;;;6155114;23;20010;-81
2023/08/03 04:24:24;;;;;;;5.53;0.50;;;15.80;99.90;;;;;;6156764;23;20026;-81
2023/08/03 04:26:50;;;;;;;0.60;0.30;;;15.70;99.90;;;;;;6156930;23;20009;-81
2023/08/03 04:29:15;;;;;;;2.05;0.40;;;15.90;99.90;;;;;;6154944;23;20021;-81
2023/08/03 04:31:41;;;;;;;2.00;0.40;;;15.80;99.90;;;;;;6155085;23;20021;-81
2023/08/03 04:34:09;;;;;;;2.47;0.50;;;15.90;99.90;;;;;;6174381;23;20020;-81
2023/08/03 04:36:34;;;;;;;3.13;0.40;;;15.90;99.90;;;;;;6186520;23;20028;-81
2023/08/03 04:39:03;;;;;;;1.77;0.57;;;15.80;99.90;;;;;;6186034;23;20520;-81
2023/08/03 04:41:31;;;;;;;2.65;0.38;;;15.90;99.90;;;;;;6186025;23;20096;-81
2023/08/03 04:43:57;;;;;;;1.58;0.40;;;15.90;99.90;;;;;;6159718;23;20369;-81
2023/08/03 04:46:23;;;;;;;1.40;0.40;;;15.80;99.90;;;;;;6159883;23;20017;-81
2023/08/03 04:48:48;;;;;;;0.75;0.30;;;15.80;99.90;;;;;;6159909;23;20017;-81
2023/08/03 04:51:14;;;;;;;1.33;0.40;;;15.80;99.90;;;;;;6160133;23;20322;-81
2023/08/03 04:53:39;;;;;;;1.52;0.40;;;15.90;99.90;;;;;;6159742;23;20472;-81
2023/08/03 04:56:05;;;;;;;0.75;0.30;;;15.80;99.90;;;;;;6186313;23;20013;-81
2023/08/03 04:58:31;;;;;;;0.90;0.40;;;15.80;99.90;;;;;;6159597;23;20028;-81
2023/08/03 05:00:57;;;;;;;1.30;0.30;;;15.80;99.90;;;;;;6159620;23;20096;-81
2023/08/03 05:03:22;;;;;;;1.50;0.40;;;15.80;99.90;;;;;;6186195;23;20016;-81
2023/08/03 05:05:48;;;;;;;1.02;0.30;;;15.70;99.90;;;;;;6186170;23;20057;-81
2023/08/03 05:08:14;;;;;;;2.22;0.43;;;15.80;99.90;;;;;;6186208;23;20094;-81
2023/08/03 05:10:39;;;;;;;3.80;0.60;;;15.80;99.90;;;;;;6159613;23;20505;-81
2023/08/03 05:13:05;;;;;;;3.38;0.60;;;15.70;99.90;;;;;;6159636;23;20017;-81
2023/08/03 05:15:31;;;;;;;3.58;0.70;;;15.80;99.90;;;;;;6186194;23;20385;-81
2023/08/03 05:17:56;;;;;;;1.63;0.55;;;15.70;99.90;;;;;;6159579;23;20393;-81
2023/08/03 05:20:22;;;;;;;2.30;0.50;;;15.70;99.90;;;;;;6186151;23;20024;-81
2023/08/03 05:22:47;;;;;;;2.92;0.50;;;15.70;99.90;;;;;;6186127;23;20044;-80
2023/08/03 05:25:14;;;;;;;2.80;0.40;;;15.70;99.90;;;;;;6159390;23;20368;-80
2023/08/03 05:27:40;;;;;;;1.52;0.50;;;15.80;99.90;;;;;;6159354;23;20017;-81
2023/08/03 05:30:06;;;;;;;2.92;0.50;;;15.80;99.90;;;;;;6159594;23;20021;-81
2023/08/03 05:32:32;;;;;;;4.35;0.70;;;15.70;99.90;;;;;;6159446;23;20023;-81
2023/08/03 05:34:58;;;;;;;3.85;0.60;;;15.80;99.90;;;;;;6185593;23;20021;-81
2023/08/03 05:37:24;;;;;;;2.65;0.60;;;15.80;99.90;;;;;;6159564;23;20048;-80
2023/08/03 05:39:50;;;;;;;1.77;0.50;;;15.80;99.90;;;;;;6159384;23;20017;-80
2023/08/03 05:42:17;;;;;;;4.63;0.70;;;15.80;99.90;;;;;;6185910;23;20009;-80
2023/08/03 05:44:43;;;;;;;1.92;0.60;;;15.90;99.90;;;;;;6185869;23;20017;-80
2023/08/03 05:47:10;;;;;;;2.97;0.80;;;15.90;99.90;;;;;;6159433;23;20382;-80
2023/08/03 05:49:39;;;;;;;4.35;1.45;;;15.90;99.90;;;;;;6159393;23;20017;-80
2023/08/03 05:52:09;;;;;;;1.45;0.82;;;16.20;99.90;;;;;;6185754;23;20036;-80
2023/08/03 05:54:34;;;;;;;3.53;0.90;;;16.30;99.90;;;;;;6161103;23;20352;-80
2023/08/03 05:57:00;;;;;;;2.00;1.08;;;16.20;99.90;;;;;;6161440;23;20440;-80
2023/08/03 05:59:26;;;;;;;3.20;1.23;;;16.30;99.90;;;;;;6161397;23;20319;-80
2023/08/03 06:01:52;;;;;;;4.60;1.35;;;16.30;99.90;;;;;;6188050;23;20045;-80
2023/08/03 06:04:18;;;;;;;3.67;1.58;;;16.50;99.90;;;;;;6161248;23;20021;-80
2023/08/03 06:06:45;;;;;;;2.58;1.20;;;16.50;99.90;;;;;;6161311;23;20021;-79
2023/08/03 06:09:14;;;;;;;3.28;1.10;;;16.70;99.90;;;;;;6161254;23;20016;-79
2023/08/03 06:11:40;;;;;;;2.72;1.33;;;16.70;99.90;;;;;;6187885;23;20037;-79
2023/08/03 06:14:15;;;;;;;2.42;0.80;;;17.00;99.90;;;;;;6187599;23;20397;-80
2023/08/03 06:16:44;;;;;;;1.95;0.70;;;17.10;99.90;;;;;;6187612;23;20024;-80
2023/08/03 06:19:10;;;;;;;1.65;0.88;;;17.00;99.90;;;;;;6187023;23;20017;-80
2023/08/03 06:21:36;;;;;;;3.20;1.17;;;17.20;99.90;;;;;;6186913;23;20015;-80
2023/08/03 06:24:03;;;;;;;1.17;0.50;;;17.20;99.90;;;;;;6186830;23;20028;-80
2023/08/03 06:26:32;;;;;;;2.10;0.50;;;17.50;99.90;;;;;;6187337;23;20021;-81
2023/08/03 06:29:00;;;;;;;1.30;0.60;;;17.50;99.90;;;;;;6161017;23;20092;-81
2023/08/03 06:31:32;;;;;;;1.95;0.52;;;17.60;99.90;;;;;;6187141;23;20088;-82
2023/08/03 06:34:02;;;;;;;0.85;0.55;;;17.70;99.90;;;;;;6160377;23;20093;-81
2023/08/03 06:36:28;;;;;;;1.73;0.63;;;17.70;99.90;;;;;;6159019;23;20086;-79
2023/08/03 06:38:55;;;;;;;5.10;0.80;;;17.80;99.90;;;;;;6187644;23;20013;-79
2023/08/03 06:41:22;;;;;;;2.00;0.80;;;17.70;99.90;;;;;;6187677;23;20044;-80
2023/08/03 06:43:48;;;;;;;3.78;0.70;;;17.80;99.90;;;;;;6187331;23;20020;-79
2023/08/03 06:46:14;;;;;;;6.10;0.98;;;17.80;99.90;;;;;;6159719;23;20013;-77
2023/08/03 06:48:39;;;;;;;2.30;0.60;;;17.80;99.90;;;;;;6160738;23;20507;-78
2023/08/03 06:51:06;;;;;;;3.75;0.82;;;17.80;99.90;;;;;;6186926;23;20021;-78
2023/08/03 06:53:32;;;;;;;3.90;1.13;;;17.80;99.90;;;;;;6187015;23;20025;-78
2023/08/03 06:55:58;;;;;;;3.45;1.02;;;17.90;99.90;;;;;;6187239;23;20028;-80
2023/08/03 06:58:24;;;;;;;4.75;1.17;;;18.00;99.90;;;;;;6160664;23;20013;-80
2023/08/03 07:00:50;;;;;;;4.28;1.38;;;18.00;99.90;;;;;;6160462;23;20063;-81
2023/08/03 07:03:16;;;;;;;4.70;1.13;;;18.20;99.90;;;;;;6187294;23;20017;-79
2023/08/03 07:05:43;;;;;;;3.13;1.20;;;18.30;99.90;;;;;;6159747;23;20020;-78
2023/08/03 07:08:09;;;;;;;7.47;1.42;;;18.30;99.90;;;;;;6186681;23;20552;-78
2023/08/03 07:10:35;;;;;;;4.80;0.95;;;18.40;99.90;;;;;;6160480;23;20024;-77
2023/08/03 07:13:02;;;;;;;6.93;1.95;;;18.50;99.90;;;;;;6187137;23;20009;-77
2023/08/03 07:15:33;;;;;;;6.10;1.25;;;18.60;99.90;;;;;;6186711;23;20127;-78
2023/08/03 07:18:03;;;;;;;5.90;1.20;;;18.70;99.90;;;;;;6160343;23;20021;-76
2023/08/03 07:20:28;;;;;;;3.80;1.05;;;18.80;99.90;;;;;;6160161;23;20357;-80
2023/08/03 07:23:02;;;;;;;6.32;1.60;;;18.90;99.90;;;;;;6186867;23;20021;-80
2023/08/03 07:25:31;;;;;;;6.70;1.23;;;19.00;99.90;;;;;;6187020;23;20044;-81
2023/08/03 07:27:57;;;;;;;5.07;1.33;;;19.10;99.90;;;;;;6186961;23;20017;-80
2023/08/03 07:30:22;;;;;;;3.35;1.20;;;19.20;99.90;;;;;;6160485;23;20406;-80
2023/08/03 07:32:48;;;;;;;5.38;1.30;;;19.20;99.90;;;;;;6186460;23;20404;-80
2023/08/03 07:35:15;;;;;;;3.45;1.15;;;19.10;99.90;;;;;;6186096;23;20091;-80
2023/08/03 07:37:42;;;;;;;8.32;1.30;;;19.10;99.90;;;;;;6186708;23;20021;-80
2023/08/03 07:40:08;;;;;;;6.47;1.40;;;19.20;99.90;;;;;;6186695;23;20167;-80
2023/08/03 07:42:34;;;;;;;6.28;1.33;;;19.30;99.90;;;;;;6186784;23;20024;-80
2023/08/03 07:45:00;;;;;;;4.28;1.20;;;19.40;99.90;;;;;;6159896;23;20013;-80
2023/08/03 07:47:26;;;;;;;4.53;0.98;;;19.30;99.90;;;;;;6160196;23;20088;-80
2023/08/03 07:49:55;;;;;;;5.55;1.50;;;19.10;99.90;;;;;;6186596;23;20013;-81
2023/08/03 07:52:21;;;;;;;6.97;1.30;;;19.00;99.90;;;;;;6159929;23;20028;-81
2023/08/03 07:54:47;;;;;;;8.25;1.63;;;18.80;99.90;;;;;;6186745;23;20017;-80
2023/08/03 07:57:15;;;;;;;9.00;2.00;;;19.00;99.90;;;;;;6186644;23;20009;-78
2023/08/03 07:59:42;;;;;;;11.73;2.35;;;19.10;99.90;;;;;;6186465;23;20104;-80
2023/08/03 08:02:07;;;;;;;9.93;2.25;;;19.20;99.90;;;;;;6186680;23;20088;-82
2023/08/03 08:04:33;;;;;;;9.38;2.15;;;19.00;99.90;;;;;;6186445;23;20107;-79
2023/08/03 08:06:58;;;;;;;9.27;2.03;;;18.90;99.90;;;;;;6186701;23;20096;-80
2023/08/03 08:09:25;;;;;;;7.00;2.30;;;19.00;99.90;;;;;;6160071;23;20337;-78
2023/08/03 08:11:51;;;;;;;6.97;2.85;;;19.10;99.90;;;;;;6159831;23;20017;-79
2023/08/03 08:14:16;;;;;;;8.82;2.78;;;19.20;99.90;;;;;;6186453;23;20078;-79
2023/08/03 08:16:42;;;;;;;8.52;2.78;;;19.40;99.90;;;;;;6159833;23;20092;-78
2023/08/03 08:19:08;;;;;;;9.20;2.80;;;19.40;99.90;;;;;;6186594;23;20044;-78
2023/08/03 08:21:33;;;;;;;8.18;3.17;;;19.40;99.90;;;;;;6185963;23;20009;-79
2023/08/03 08:23:59;;;;;;;8.30;3.15;;;19.50;99.90;;;;;;6159542;23;20025;-76
2023/08/03 08:26:25;;;;;;;8.05;2.78;;;19.60;99.90;;;;;;6159911;23;20039;-78
2023/08/03 08:28:56;;;;;;;12.38;3.08;;;19.60;99.90;;;;;;6159586;23;20020;-78
2023/08/03 08:31:23;;;;;;;10.73;3.30;;;19.60;99.90;;;;;;6159765;23;20024;-79
2023/08/03 08:33:49;;;;;;;10.55;2.60;;;19.60;99.90;;;;;;6185866;23;20028;-79
2023/08/03 08:36:15;;;;;;;10.75;2.72;;;19.60;99.90;;;;;;6159597;23;20017;-81
2023/08/03 08:38:40;;;;;;;8.13;2.50;;;19.60;99.90;;;;;;6186380;23;20353;-80
2023/08/03 08:41:06;;;;;;;7.72;2.63;;;19.70;99.90;;;;;;6159658;23;20334;-81
2023/08/03 08:43:35;;;;;;;7.43;2.33;;;19.80;99.90;;;;;;6186229;23;20020;-78
2023/08/03 08:46:00;;;;;;;7.53;2.50;;;20.00;99.90;;;;;;6159350;23;20393;-78
2023/08/03 08:48:26;;;;;;;8.15;2.53;;;20.10;99.90;;;;;;6156580;23;20468;-77
2023/08/03 08:50:52;;;;;;;9.15;2.30;;;20.00;99.90;;;;;;6179671;23;20385;-78
2023/08/03 08:53:18;;;;;;;8.45;2.45;;;20.00;99.90;;;;;;6179589;23;20025;-77
2023/08/03 08:55:46;;;;;;;10.38;2.50;;;20.00;99.90;;;;;;6180784;23;20025;-77
2023/08/03 08:58:11;;;;;;;10.48;2.33;;;19.80;99.90;;;;;;6155026;23;20096;-79
2023/08/03 09:00:46;;;;;;;8.38;3.10;;;19.70;99.90;;;;;;6153883;23;20051;-77
2023/08/03 09:03:13;;;;;;;6.30;2.60;;;19.80;99.90;;;;;;6180357;23;20017;-78
2023/08/03 09:05:39;;;;;;;7.38;2.70;;;20.00;99.90;;;;;;6153762;23;20028;-79
2023/08/03 09:08:12;;;;;;;8.75;3.00;;;20.10;99.90;;;;;;6155006;23;20024;-78
2023/08/03 09:10:53;;;;;;;;;;;20.10;99.90;;;;;;6154794;23;20020;-79
2023/08/03 09:13:26;;;;;;;7.13;2.58;;;20.10;99.90;;;;;;6183395;23;19943;-78
2023/08/03 09:15:52;;;;;;;9.60;2.50;;;20.10;99.90;;;;;;6185551;23;20446;-77
2023/08/03 09:18:20;;;;;;;9.95;2.90;;;20.00;99.90;;;;;;6159164;23;20024;-81
2023/08/03 09:20:46;;;;;;;8.90;2.55;;;20.10;99.90;;;;;;6159302;23;20029;-78
2023/08/03 09:23:32;;;;;;;7.15;2.45;;;20.10;99.90;;;;;;6159253;23;20017;-81
2023/08/03 09:25:58;;;;;;;6.32;2.30;;;20.20;99.90;;;;;;6158580;23;20375;-78
2023/08/03 09:28:43;;;;;;;8.18;2.40;;;20.00;99.90;;;;;;6157966;23;20524;-79
2023/08/03 09:31:10;;;;;;;6.53;2.13;;;20.00;99.90;;;;;;6158247;23;20087;-80
2023/08/03 09:33:36;;;;;;;8.60;2.40;;;20.10;99.90;;;;;;6158835;23;20021;-79
2023/08/03 09:36:14;;;;;;;9.00;2.67;;;20.30;99.90;;;;;;6158510;23;20393;-79
2023/08/03 09:38:42;;;;;;;9.82;2.38;;;20.30;99.90;;;;;;6158995;23;20024;-79
2023/08/03 09:41:12;;;;;;;10.93;2.42;;;20.30;99.90;;;;;;6185349;23;20028;-79
2023/08/03 09:43:40;;;;;;;8.48;2.40;;;20.40;99.90;;;;;;6185073;23;20028;-77
2023/08/03 09:46:06;;;;;;;7.28;2.35;;;20.30;99.90;;;;;;6158486;23;20071;-77
2023/08/03 09:48:32;;;;;;;8.13;2.15;;;20.10;99.90;;;;;;6158914;23;20437;-77
2023/08/03 09:50:59;;;;;;;6.65;2.00;;;20.20;99.90;;;;;;6158787;23;20096;-78
2023/08/03 09:53:36;;;;;;;5.95;1.60;;;20.30;99.90;;;;;;6185265;23;20017;-79
2023/08/03 09:56:03;;;;;;;6.35;1.65;;;20.50;99.90;;;;;;6155970;23;20009;-77
2023/08/03 09:58:58;;;;;;;7.28;1.80;;;20.50;99.90;;;;;;6155104;23;20091;-77
2023/08/03 10:01:24;;;;;;;7.32;1.50;;;20.40;99.90;;;;;;6158306;23;20072;-81
2023/08/03 10:04:04;;;;;;;5.88;1.60;;;20.50;99.90;;;;;;6185381;23;20013;-78
2023/08/03 10:06:35;;;;;;;3.30;1.38;;;20.50;99.90;;;;;;6157839;23;20057;-78
2023/08/03 10:09:06;;;;;;;5.70;1.58;;;20.60;99.90;;;;;;6158954;23;20021;-78
2023/08/03 10:11:38;;;;;;;5.28;1.50;;;20.80;99.90;;;;;;6158576;23;20100;-78
2023/08/03 10:14:05;;;;;;;7.63;1.75;;;20.80;99.90;;;;;;6158604;23;20009;-78
2023/08/03 10:16:33;;;;;;;4.75;1.50;;;20.90;99.90;;;;;;6158818;23;20021;-78
2023/08/03 10:19:01;;;;;;;5.88;1.95;;;20.90;99.90;;;;;;6185192;23;20096;-76
2023/08/03 10:21:28;;;;;;;7.47;1.50;;;21.00;99.90;;;;;;6185345;23;20480;-78
2023/08/03 10:24:13;;;;;;;7.80;1.83;;;21.00;99.90;;;;;;6185558;23;20062;-76
2023/08/03 10:26:40;;;;;;;3.97;1.30;;;21.20;99.90;;;;;;6185323;23;20488;-78
2023/08/03 10:29:05;;;;;;;6.30;1.45;;;21.10;99.90;;;;;;6185109;23;20021;-85
2023/08/03 10:31:32;;;;;;;6.47;1.38;;;21.10;99.90;;;;;;6159090;23;20020;-78
2023/08/03 10:34:03;;;;;;;4.38;1.45;;;21.10;99.90;;;;;;6185047;23;20100;-75
2023/08/03 10:36:33;;;;;;;5.25;1.30;;;21.20;99.90;;;;;;6185378;23;20341;-78
2023/08/03 10:39:09;;;;;;;5.38;1.42;;;21.10;99.90;;;;;;6186099;23;20024;-77
2023/08/03 10:41:37;;;;;;;4.07;1.20;;;21.00;99.90;;;;;;6187590;23;20099;-78
2023/08/03 10:44:06;;;;;;;7.25;1.15;;;21.10;99.90;;;;;;6160476;23;20052;-75
2023/08/03 10:46:34;;;;;;;4.63;1.33;;;21.10;99.90;;;;;;6159465;23;20025;-79
2023/08/03 10:48:59;;;;;;;4.80;1.58;;;21.10;99.90;;;;;;6159759;23;20096;-80
2023/08/03 10:51:25;;;;;;;3.63;1.30;;;21.30;99.90;;;;;;6160590;23;20110;-79
2023/08/03 10:53:51;;;;;;;3.85;1.00;;;21.50;99.90;;;;;;6160711;23;20013;-77
2023/08/03 10:56:17;;;;;;;3.25;0.93;;;21.60;99.90;;;;;;6160763;23;20322;-77
2023/08/03 10:58:43;;;;;;;6.53;1.50;;;21.50;99.90;;;;;;6160544;23;20036;-78
2023/08/03 11:01:12;;;;;;;2.75;1.00;;;21.90;99.90;;;;;;6160658;23;20033;-79
2023/08/03 11:03:37;;;;;;;5.13;1.50;;;22.00;99.90;;;;;;6160670;23;20048;-78
2023/08/03 11:06:04;;;;;;;6.18;1.75;;;22.00;99.90;;;;;;6160553;23;20024;-79
2023/08/03 11:08:29;;;;;;;5.65;1.60;;;22.00;99.90;;;;;;6160491;23;20021;-79
2023/08/03 11:10:55;;;;;;;4.07;1.67;;;22.00;99.90;;;;;;6160504;23;20032;-81
2023/08/03 11:13:21;;;;;;;6.82;2.03;;;22.10;99.90;;;;;;6186810;23;20049;-79
2023/08/03 11:15:47;;;;;;;8.10;2.13;;;21.90;99.90;;;;;;6187004;23;20088;-78
2023/08/03 11:18:16;;;;;;;6.50;1.92;;;21.80;99.90;;;;;;6157653;23;20400;-78
2023/08/03 11:20:42;;;;;;;9.40;2.40;;;21.70;99.90;;;;;;6160039;23;20021;-78
2023/08/03 11:23:12;;;;;;;8.27;2.30;;;21.70;99.90;;;;;;6160094;23;20055;-78
2023/08/03 11:25:39;;;;;;;5.93;1.90;;;21.80;99.90;;;;;;6159963;23;20021;-78
2023/08/03 11:28:05;;;;;;;8.95;2.30;;;21.80;99.90;;;;;;6187107;23;20013;-78
2023/08/03 11:30:30;;;;;;;4.78;1.58;;;21.90;99.90;;;;;;6160167;23;20021;-77
2023/08/03 11:32:59;;;;;;;9.40;1.67;;;21.80;99.90;;;;;;6156197;23;20017;-76
2023/08/03 11:35:25;;;;;;;10.80;1.90;;;21.80;99.90;;;;;;6183953;23;20013;-77
2023/08/03 11:37:51;;;;;;;7.65;2.30;;;21.70;99.90;;;;;;6160233;23;20108;-76
2023/08/03 11:40:23;;;;;;;6.53;1.50;;;21.70;99.90;;;;;;6186890;23;20013;-78
2023/08/03 11:42:48;;;;;;;8.60;1.25;;;21.70;99.90;;;;;;6186824;23;20017;-83
2023/08/03 11:45:14;;;;;;;9.18;1.50;;;21.60;99.90;;;;;;6186392;23;20061;-77
2023/08/03 11:47:48;;;;;;;7.85;1.38;;;21.50;99.90;;;;;;6160071;23;20066;-77
2023/08/03 11:50:21;;;;;;;5.75;1.23;;;21.40;99.90;;;;;;6186994;23;20075;-79
2023/08/03 11:52:46;;;;;;;5.70;1.13;;;21.50;99.90;;;;;;6159939;23;20023;-76
2023/08/03 11:55:30;;;;;;;10.43;1.60;;;21.50;99.90;;;;;;6158880;23;20437;-77
2023/08/03 11:58:11;;;;;;;4.40;1.65;;;21.60;99.90;;;;;;6160201;23;20095;-77
2023/08/03 12:00:38;;;;;;;5.30;1.52;;;21.50;99.90;;;;;;6160089;23;20048;-77
2023/08/03 12:03:03;;;;;;;7.22;1.52;;;21.60;99.90;;;;;;6186684;23;20018;-78
2023/08/03 12:05:45;;;;;;;8.80;1.95;;;21.50;99.90;;;;;;6159814;23;20095;-77
2023/08/03 12:08:11;;;;;;;8.53;1.93;;;21.30;99.90;;;;;;6159948;23;20017;-79
2023/08/03 12:10:36;;;;;;;8.80;1.85;;;21.40;99.90;;;;;;6159884;23;20257;-77
2023/08/03 12:13:04;;;;;;;6.78;1.80;;;21.30;99.90;;;;;;6186585;23;20013;-76
2023/08/03 12:15:29;;;;;;;6.82;2.10;;;21.20;99.90;;;;;;6158785;23;20031;-75
2023/08/03 12:18:01;;;;;;;12.43;2.53;;;21.00;99.90;;;;;;6157458;23;20338;-76
2023/08/03 12:20:27;;;;;;;10.85;2.33;;;21.00;99.90;;;;;;6186474;23;20068;-78
2023/08/03 12:22:52;;;;;;;7.53;2.15;;;20.90;99.90;;;;;;6159638;23;20017;-77
2023/08/03 12:25:18;;;;;;;8.98;2.53;;;20.80;99.90;;;;;;6159621;23;20052;-79
2023/08/03 12:27:44;;;;;;;12.65;2.40;;;20.70;99.90;;;;;;6158738;23;20013;-78
2023/08/03 12:30:12;;;;;;;8.23;2.28;;;20.70;99.90;;;;;;6159898;23;20568;-78
2023/08/03 12:32:38;;;;;;;10.38;2.70;;;20.70;99.90;;;;;;6159708;23;20160;-78
2023/08/03 12:35:05;;;;;;;10.60;2.88;;;20.70;99.90;;;;;;6185889;23;20382;-79
2023/08/03 12:37:32;;;;;;;11.95;3.10;;;20.80;99.90;;;;;;6159474;23;20043;-79
2023/08/03 12:39:57;;;;;;;12.88;2.70;;;20.80;99.90;;;;;;6159797;23;20017;-76
2023/08/03 12:42:23;;;;;;;13.00;3.05;;;20.80;99.90;;;;;;6185883;23;20013;-77
2023/08/03 12:44:48;;;;;;;14.80;3.25;;;20.80;99.90;;;;;;6185847;23;20014;-76
2023/08/03 12:47:14;;;;;;;15.15;3.42;;;20.90;99.90;;;;;;6159353;23;20013;-77
2023/08/03 12:49:40;;;;;;;12.55;2.97;;;20.70;99.90;;;;;;6185708;23;20048;-77